<?xml version="1.0" encoding="UTF-8" standalone="no" ?>
<gpx xmlns="http://www.topografix.com/GPX/1/1" xmlns:xsi="http://www.w3.org/2001/XMLSchema-instance" xsi:schemaLocation="http://www.topografix.com/GPX/1/1 http://www.topografix.com/GPX/1/1/gpx.xsd" version="1.1" creator="VisuGPX - https://www.visugpx.com">
  <metadata>
    <name>Boucle Château d'Abondant-Château de Sorel-Château d'Anet</name>
  </metadata>
  <trk>
    <name><![CDATA[Boucle Château d'Abondant-Château de Sorel-Château d'Anet]]></name>
    <trkseg>
      <trkpt lat="48.78308" lon="1.44029">
        <ele>137.604028</ele>
        <time>2021-02-18T17:09:02.261Z</time>
      </trkpt>
      <trkpt lat="48.78318" lon="1.4399">
        <ele>137.604028</ele>
        <time>2021-02-18T17:09:08.733Z</time>
      </trkpt>
      <trkpt lat="48.78334" lon="1.43983">
        <ele>137.604028</ele>
        <time>2021-02-18T17:09:12.756Z</time>
      </trkpt>
      <trkpt lat="48.78369" lon="1.43977">
        <ele>137.604028</ele>
        <time>2021-02-18T17:09:21.071Z</time>
      </trkpt>
      <trkpt lat="48.78479" lon="1.4399">
        <ele>137.177829</ele>
        <time>2021-02-18T17:09:45.612Z</time>
      </trkpt>
      <trkpt lat="48.7853" lon="1.4401">
        <ele>136.953998</ele>
        <time>2021-02-18T17:09:56.490Z</time>
      </trkpt>
      <trkpt lat="48.78536" lon="1.44013">
        <ele>136.92709</ele>
        <time>2021-02-18T17:09:57.793Z</time>
      </trkpt>
      <trkpt lat="48.7855" lon="1.44023">
        <ele>136.860876</ele>
        <time>2021-02-18T17:10:01.082Z</time>
      </trkpt>
      <trkpt lat="48.78561" lon="1.4399">
        <ele>136.759351</ele>
        <time>2021-02-18T17:10:06.241Z</time>
      </trkpt>
      <trkpt lat="48.78576" lon="1.43931">
        <ele>136.590485</ele>
        <time>2021-02-18T17:10:15.102Z</time>
      </trkpt>
      <trkpt lat="48.78586" lon="1.43867">
        <ele>136.413364</ele>
        <time>2021-02-18T17:10:24.398Z</time>
      </trkpt>
      <trkpt lat="48.78597" lon="1.438">
        <ele>136.227568</ele>
        <time>2021-02-18T17:10:34.293Z</time>
      </trkpt>
      <trkpt lat="48.78622" lon="1.43664">
        <ele>136.468163</ele>
        <time>2021-02-18T17:10:56.653Z</time>
      </trkpt>
      <trkpt lat="48.78617" lon="1.43605">
        <ele>136.690249</ele>
        <time>2021-02-18T17:11:07.593Z</time>
      </trkpt>
      <trkpt lat="48.78615" lon="1.43584">
        <ele>136.773223</ele>
        <time>2021-02-18T17:11:11.758Z</time>
      </trkpt>
      <trkpt lat="48.7861" lon="1.4353">
        <ele>136.979403</ele>
        <time>2021-02-18T17:11:21.914Z</time>
      </trkpt>
      <trkpt lat="48.78612" lon="1.4349">
        <ele>137.13099</ele>
        <time>2021-02-18T17:11:29.422Z</time>
      </trkpt>
      <trkpt lat="48.78627" lon="1.43431">
        <ele>137.239768</ele>
        <time>2021-02-18T17:11:40.761Z</time>
      </trkpt>
      <trkpt lat="48.78648" lon="1.43349">
        <ele>137.383535</ele>
        <time>2021-02-18T17:11:56.005Z</time>
      </trkpt>
      <trkpt lat="48.78676" lon="1.43238">
        <ele>137.576656</ele>
        <time>2021-02-18T17:12:13.950Z</time>
      </trkpt>
      <trkpt lat="48.78679" lon="1.43239">
        <ele>137.583248</ele>
        <time>2021-02-18T17:12:14.390Z</time>
      </trkpt>
      <trkpt lat="48.78762" lon="1.43232">
        <ele>137.149453</ele>
        <time>2021-02-18T17:12:32.033Z</time>
      </trkpt>
      <trkpt lat="48.78844" lon="1.43228">
        <ele>136.710288</ele>
        <time>2021-02-18T17:12:49.317Z</time>
      </trkpt>
      <trkpt lat="48.78915" lon="1.43225">
        <ele>136.548367</ele>
        <time>2021-02-18T17:13:04.919Z</time>
      </trkpt>
      <trkpt lat="48.78968" lon="1.43224">
        <ele>136.471965</ele>
        <time>2021-02-18T17:13:17.030Z</time>
      </trkpt>
      <trkpt lat="48.79021" lon="1.43236">
        <ele>136.394749</ele>
        <time>2021-02-18T17:13:29.529Z</time>
      </trkpt>
      <trkpt lat="48.79089" lon="1.43262">
        <ele>136.375447</ele>
        <time>2021-02-18T17:13:45.678Z</time>
      </trkpt>
      <trkpt lat="48.79139" lon="1.43288">
        <ele>136.381754</ele>
        <time>2021-02-18T17:13:57.707Z</time>
      </trkpt>
      <trkpt lat="48.79227" lon="1.43332">
        <ele>136.472063</ele>
        <time>2021-02-18T17:14:19.320Z</time>
      </trkpt>
      <trkpt lat="48.79244" lon="1.43329">
        <ele>136.548803</ele>
        <time>2021-02-18T17:14:23.318Z</time>
      </trkpt>
      <trkpt lat="48.79282" lon="1.43308">
        <ele>136.729328</ele>
        <time>2021-02-18T17:14:33.331Z</time>
      </trkpt>
      <trkpt lat="48.79392" lon="1.43218">
        <ele>137.24573</ele>
        <time>2021-02-18T17:15:07.396Z</time>
      </trkpt>
      <trkpt lat="48.7944" lon="1.4317">
        <ele>137.370069</ele>
        <time>2021-02-18T17:15:22.021Z</time>
      </trkpt>
      <trkpt lat="48.79458" lon="1.43146">
        <ele>137.421935</ele>
        <time>2021-02-18T17:15:27.637Z</time>
      </trkpt>
      <trkpt lat="48.79482" lon="1.43117">
        <ele>137.488125</ele>
        <time>2021-02-18T17:15:34.743Z</time>
      </trkpt>
      <trkpt lat="48.79491" lon="1.43097">
        <ele>137.522995</ele>
        <time>2021-02-18T17:15:38.677Z</time>
      </trkpt>
      <trkpt lat="48.79498" lon="1.43085">
        <ele>137.545476</ele>
        <time>2021-02-18T17:15:41.037Z</time>
      </trkpt>
      <trkpt lat="48.79504" lon="1.43079">
        <ele>137.56068</ele>
        <time>2021-02-18T17:15:42.504Z</time>
      </trkpt>
      <trkpt lat="48.79517" lon="1.43072">
        <ele>137.59083</ele>
        <time>2021-02-18T17:15:45.910Z</time>
      </trkpt>
      <trkpt lat="48.79552" lon="1.43061">
        <ele>137.623337</ele>
        <time>2021-02-18T17:15:53.680Z</time>
      </trkpt>
      <trkpt lat="48.79721" lon="1.43033">
        <ele>138.082229</ele>
        <time>2021-02-18T17:16:33.426Z</time>
      </trkpt>
      <trkpt lat="48.79901" lon="1.42983">
        <ele>140.340116</ele>
        <time>2021-02-18T17:17:32.851Z</time>
      </trkpt>
      <trkpt lat="48.80095" lon="1.42968">
        <ele>142.160073</ele>
        <time>2021-02-18T17:18:30.485Z</time>
      </trkpt>
      <trkpt lat="48.80136" lon="1.42965">
        <ele>142.181354</ele>
        <time>2021-02-18T17:18:40.116Z</time>
      </trkpt>
      <trkpt lat="48.80093" lon="1.43181">
        <ele>141.784654</ele>
        <time>2021-02-18T17:19:34.464Z</time>
      </trkpt>
      <trkpt lat="48.80057" lon="1.43366">
        <ele>140.714992</ele>
        <time>2021-02-18T17:20:19.202Z</time>
      </trkpt>
      <trkpt lat="48.80035" lon="1.43523">
        <ele>139.428292</ele>
        <time>2021-02-18T17:20:55.651Z</time>
      </trkpt>
      <trkpt lat="48.80118" lon="1.43593">
        <ele>138.437786</ele>
        <time>2021-02-18T17:21:28.355Z</time>
      </trkpt>
      <trkpt lat="48.8018" lon="1.4366">
        <ele>138.11227</ele>
        <time>2021-02-18T17:21:55.753Z</time>
      </trkpt>
      <trkpt lat="48.80221" lon="1.4377">
        <ele>137.758738</ele>
        <time>2021-02-18T17:22:27.470Z</time>
      </trkpt>
      <trkpt lat="48.80253" lon="1.43841">
        <ele>138.097541</ele>
        <time>2021-02-18T17:22:51.174Z</time>
      </trkpt>
      <trkpt lat="48.80477" lon="1.43723">
        <ele>139.286341</ele>
        <time>2021-02-18T17:24:31.547Z</time>
      </trkpt>
      <trkpt lat="48.80511" lon="1.43735">
        <ele>139.426911</ele>
        <time>2021-02-18T17:24:44.599Z</time>
      </trkpt>
      <trkpt lat="48.80535" lon="1.43772">
        <ele>139.572917</ele>
        <time>2021-02-18T17:24:57.520Z</time>
      </trkpt>
      <trkpt lat="48.80547" lon="1.43789">
        <ele>139.683117</ele>
        <time>2021-02-18T17:25:03.554Z</time>
      </trkpt>
      <trkpt lat="48.80567" lon="1.43895">
        <ele>140.180776</ele>
        <time>2021-02-18T17:25:32.319Z</time>
      </trkpt>
      <trkpt lat="48.80758" lon="1.43647">
        <ele>142.111301</ele>
        <time>2021-02-18T17:27:27.454Z</time>
      </trkpt>
      <trkpt lat="48.80728" lon="1.44188">
        <ele>138.575505</ele>
        <time>2021-02-18T17:29:31.770Z</time>
      </trkpt>
      <trkpt lat="48.80806" lon="1.44181">
        <ele>137.739423</ele>
        <time>2021-02-18T17:29:58.570Z</time>
      </trkpt>
      <trkpt lat="48.81075" lon="1.44154">
        <ele>135.248578</ele>
        <time>2021-02-18T17:31:34.164Z</time>
      </trkpt>
      <trkpt lat="48.81172" lon="1.44144">
        <ele>135.04355</ele>
        <time>2021-02-18T17:32:09.392Z</time>
      </trkpt>
      <trkpt lat="48.8131" lon="1.44131">
        <ele>135.079778</ele>
        <time>2021-02-18T17:33:06.051Z</time>
      </trkpt>
      <trkpt lat="48.81314" lon="1.43995">
        <ele>134.959305</ele>
        <time>2021-02-18T17:33:40.616Z</time>
      </trkpt>
      <trkpt lat="48.8131" lon="1.44131">
        <ele>134.554451</ele>
        <time>2021-02-18T17:34:13.412Z</time>
      </trkpt>
      <trkpt lat="48.813" lon="1.44436">
        <ele>132.06944</ele>
        <time>2021-02-18T17:35:21.962Z</time>
      </trkpt>
      <trkpt lat="48.81292" lon="1.4474">
        <ele>130.679975</ele>
        <time>2021-02-18T17:36:33.229Z</time>
      </trkpt>
      <trkpt lat="48.81548" lon="1.45118">
        <ele>132.543183</ele>
        <time>2021-02-18T17:39:00.156Z</time>
      </trkpt>
      <trkpt lat="48.8157" lon="1.45151">
        <ele>133.006973</ele>
        <time>2021-02-18T17:39:16.350Z</time>
      </trkpt>
      <trkpt lat="48.81705" lon="1.45356">
        <ele>135.39438</ele>
        <time>2021-02-18T17:40:51.597Z</time>
      </trkpt>
      <trkpt lat="48.81775" lon="1.45184">
        <ele>135.930886</ele>
        <time>2021-02-18T17:41:42.011Z</time>
      </trkpt>
      <trkpt lat="48.81778" lon="1.45183">
        <ele>135.915441</ele>
        <time>2021-02-18T17:41:43.159Z</time>
      </trkpt>
      <trkpt lat="48.81827" lon="1.45163">
        <ele>135.683685</ele>
        <time>2021-02-18T17:42:01.403Z</time>
      </trkpt>
      <trkpt lat="48.81884" lon="1.45164">
        <ele>135.426799</ele>
        <time>2021-02-18T17:42:21.743Z</time>
      </trkpt>
      <trkpt lat="48.81924" lon="1.45176">
        <ele>135.320805</ele>
        <time>2021-02-18T17:42:36.703Z</time>
      </trkpt>
      <trkpt lat="48.81966" lon="1.45198">
        <ele>135.228608</ele>
        <time>2021-02-18T17:42:53.691Z</time>
      </trkpt>
      <trkpt lat="48.81985" lon="1.45215">
        <ele>135.181793</ele>
        <time>2021-02-18T17:43:02.319Z</time>
      </trkpt>
      <trkpt lat="48.82077" lon="1.45231">
        <ele>134.876308</ele>
        <time>2021-02-18T17:43:37.208Z</time>
      </trkpt>
      <trkpt lat="48.82117" lon="1.45233">
        <ele>134.351716</ele>
        <time>2021-02-18T17:43:51.710Z</time>
      </trkpt>
      <trkpt lat="48.8215" lon="1.45226">
        <ele>133.909717</ele>
        <time>2021-02-18T17:44:03.526Z</time>
      </trkpt>
      <trkpt lat="48.82169" lon="1.45237">
        <ele>133.649369</ele>
        <time>2021-02-18T17:44:10.385Z</time>
      </trkpt>
      <trkpt lat="48.82171" lon="1.45218">
        <ele>133.483277</ele>
        <time>2021-02-18T17:44:14.679Z</time>
      </trkpt>
      <trkpt lat="48.82237" lon="1.44601">
        <ele>124.842836</ele>
        <time>2021-02-18T17:46:28.463Z</time>
      </trkpt>
      <trkpt lat="48.82244" lon="1.4456">
        <ele>124.280556</ele>
        <time>2021-02-18T17:46:37.627Z</time>
      </trkpt>
      <trkpt lat="48.82364" lon="1.44536">
        <ele>122.065382</ele>
        <time>2021-02-18T17:47:17.317Z</time>
      </trkpt>
      <trkpt lat="48.82683" lon="1.4447">
        <ele>118.473152</ele>
        <time>2021-02-18T17:49:09.256Z</time>
      </trkpt>
      <trkpt lat="48.8293" lon="1.44421">
        <ele>117.453049</ele>
        <time>2021-02-18T17:50:42.100Z</time>
      </trkpt>
      <trkpt lat="48.83053" lon="1.44395">
        <ele>117.219746</ele>
        <time>2021-02-18T17:51:29.181Z</time>
      </trkpt>
      <trkpt lat="48.83091" lon="1.4439">
        <ele>117.151473</ele>
        <time>2021-02-18T17:51:43.215Z</time>
      </trkpt>
      <trkpt lat="48.83101" lon="1.44392">
        <ele>117.132642</ele>
        <time>2021-02-18T17:51:47.046Z</time>
      </trkpt>
      <trkpt lat="48.83116" lon="1.44394">
        <ele>117.105034</ele>
        <time>2021-02-18T17:51:52.701Z</time>
      </trkpt>
      <trkpt lat="48.83125" lon="1.44386">
        <ele>117.075399</ele>
        <time>2021-02-18T17:51:56.643Z</time>
      </trkpt>
      <trkpt lat="48.83232" lon="1.4436">
        <ele>116.731426</ele>
        <time>2021-02-18T17:52:36.610Z</time>
      </trkpt>
      <trkpt lat="48.83312" lon="1.44363">
        <ele>116.328119</ele>
        <time>2021-02-18T17:53:07.283Z</time>
      </trkpt>
      <trkpt lat="48.835" lon="1.44608">
        <ele>111.491223</ele>
        <time>2021-02-18T17:54:31.086Z</time>
      </trkpt>
      <trkpt lat="48.835" lon="1.44616">
        <ele>111.319988</ele>
        <time>2021-02-18T17:54:32.751Z</time>
      </trkpt>
      <trkpt lat="48.83492" lon="1.44624">
        <ele>111.019815</ele>
        <time>2021-02-18T17:54:35.119Z</time>
      </trkpt>
      <trkpt lat="48.83474" lon="1.44644">
        <ele>110.279097</ele>
        <time>2021-02-18T17:54:42.496Z</time>
      </trkpt>
      <trkpt lat="48.83472" lon="1.44658">
        <ele>109.982908</ele>
        <time>2021-02-18T17:54:44.943Z</time>
      </trkpt>
      <trkpt lat="48.83467" lon="1.44685">
        <ele>109.371657</ele>
        <time>2021-02-18T17:54:50.922Z</time>
      </trkpt>
      <trkpt lat="48.83468" lon="1.44706">
        <ele>108.926147</ele>
        <time>2021-02-18T17:54:54.772Z</time>
      </trkpt>
      <trkpt lat="48.83483" lon="1.44798">
        <ele>107.514558</ele>
        <time>2021-02-18T17:55:13.040Z</time>
      </trkpt>
      <trkpt lat="48.83491" lon="1.44796">
        <ele>107.361867</ele>
        <time>2021-02-18T17:55:15.352Z</time>
      </trkpt>
      <trkpt lat="48.83505" lon="1.44822">
        <ele>106.936095</ele>
        <time>2021-02-18T17:55:21.853Z</time>
      </trkpt>
      <trkpt lat="48.83519" lon="1.44872">
        <ele>106.26473</ele>
        <time>2021-02-18T17:55:33.397Z</time>
      </trkpt>
      <trkpt lat="48.83518" lon="1.44911">
        <ele>105.766527</ele>
        <time>2021-02-18T17:55:42.101Z</time>
      </trkpt>
      <trkpt lat="48.83522" lon="1.44934">
        <ele>105.476255</ele>
        <time>2021-02-18T17:55:51.115Z</time>
      </trkpt>
      <trkpt lat="48.83519" lon="1.44989">
        <ele>105.234541</ele>
        <time>2021-02-18T17:56:09.941Z</time>
      </trkpt>
      <trkpt lat="48.83518" lon="1.44999">
        <ele>105.431074</ele>
        <time>2021-02-18T17:56:13.045Z</time>
      </trkpt>
      <trkpt lat="48.83513" lon="1.45035">
        <ele>106.153577</ele>
        <time>2021-02-18T17:56:27.117Z</time>
      </trkpt>
      <trkpt lat="48.83507" lon="1.45076">
        <ele>106.965852</ele>
        <time>2021-02-18T17:56:42.252Z</time>
      </trkpt>
      <trkpt lat="48.83509" lon="1.45095">
        <ele>107.342807</ele>
        <time>2021-02-18T17:56:51.477Z</time>
      </trkpt>
      <trkpt lat="48.83522" lon="1.4512">
        <ele>107.972581</ele>
        <time>2021-02-18T17:57:02.284Z</time>
      </trkpt>
      <trkpt lat="48.8354" lon="1.45125">
        <ele>108.526831</ele>
        <time>2021-02-18T17:57:14.361Z</time>
      </trkpt>
      <trkpt lat="48.83579" lon="1.45088">
        <ele>109.903273</ele>
        <time>2021-02-18T17:57:40.428Z</time>
      </trkpt>
      <trkpt lat="48.83614" lon="1.45127">
        <ele>110.673234</ele>
        <time>2021-02-18T17:58:05.269Z</time>
      </trkpt>
      <trkpt lat="48.83647" lon="1.45146">
        <ele>111.104815</ele>
        <time>2021-02-18T17:58:25.239Z</time>
      </trkpt>
      <trkpt lat="48.83671" lon="1.45159">
        <ele>111.425967</ele>
        <time>2021-02-18T17:58:37.228Z</time>
      </trkpt>
      <trkpt lat="48.83696" lon="1.45153">
        <ele>111.738781</ele>
        <time>2021-02-18T17:58:48.555Z</time>
      </trkpt>
      <trkpt lat="48.8373" lon="1.45155">
        <ele>112.15512</ele>
        <time>2021-02-18T17:59:02.520Z</time>
      </trkpt>
      <trkpt lat="48.83891" lon="1.45286">
        <ele>110.181383</ele>
        <time>2021-02-18T18:00:04.623Z</time>
      </trkpt>
      <trkpt lat="48.83937" lon="1.45334">
        <ele>108.831286</ele>
        <time>2021-02-18T18:00:22.836Z</time>
      </trkpt>
      <trkpt lat="48.83941" lon="1.4534">
        <ele>108.66262</ele>
        <time>2021-02-18T18:00:24.450Z</time>
      </trkpt>
      <trkpt lat="48.83959" lon="1.45365">
        <ele>107.863384</ele>
        <time>2021-02-18T18:00:32.280Z</time>
      </trkpt>
      <trkpt lat="48.83996" lon="1.45435">
        <ele>105.925685</ele>
        <time>2021-02-18T18:00:50.603Z</time>
      </trkpt>
      <trkpt lat="48.84007" lon="1.45476">
        <ele>104.992025</ele>
        <time>2021-02-18T18:00:59.251Z</time>
      </trkpt>
      <trkpt lat="48.84031" lon="1.45587">
        <ele>101.780585</ele>
        <time>2021-02-18T18:01:22.273Z</time>
      </trkpt>
      <trkpt lat="48.84026" lon="1.45563">
        <ele>100.96487</ele>
        <time>2021-02-18T18:01:27.097Z</time>
      </trkpt>
      <trkpt lat="48.84062" lon="1.45707">
        <ele>96.02125</ele>
        <time>2021-02-18T18:01:56.355Z</time>
      </trkpt>
      <trkpt lat="48.84069" lon="1.4584">
        <ele>91.698414</ele>
        <time>2021-02-18T18:02:21.574Z</time>
      </trkpt>
      <trkpt lat="48.84109" lon="1.46005">
        <ele>86.041893</ele>
        <time>2021-02-18T18:02:55.418Z</time>
      </trkpt>
      <trkpt lat="48.84116" lon="1.4612">
        <ele>83.378291</ele>
        <time>2021-02-18T18:03:18.114Z</time>
      </trkpt>
      <trkpt lat="48.84142" lon="1.46275">
        <ele>79.849866</ele>
        <time>2021-02-18T18:03:51.003Z</time>
      </trkpt>
      <trkpt lat="48.84157" lon="1.46315">
        <ele>79.515508</ele>
        <time>2021-02-18T18:04:00.853Z</time>
      </trkpt>
      <trkpt lat="48.84181" lon="1.46336">
        <ele>79.211103</ele>
        <time>2021-02-18T18:04:10.370Z</time>
      </trkpt>
      <trkpt lat="48.84234" lon="1.46368">
        <ele>78.584282</ele>
        <time>2021-02-18T18:04:30.570Z</time>
      </trkpt>
      <trkpt lat="48.84262" lon="1.46373">
        <ele>78.28163</ele>
        <time>2021-02-18T18:04:40.689Z</time>
      </trkpt>
      <trkpt lat="48.84293" lon="1.46372">
        <ele>77.950917</ele>
        <time>2021-02-18T18:04:52.279Z</time>
      </trkpt>
      <trkpt lat="48.84319" lon="1.46367">
        <ele>78.032849</ele>
        <time>2021-02-18T18:04:59.872Z</time>
      </trkpt>
      <trkpt lat="48.84404" lon="1.4632">
        <ele>78.31103</ele>
        <time>2021-02-18T18:05:25.487Z</time>
      </trkpt>
      <trkpt lat="48.84431" lon="1.46314">
        <ele>78.39466</ele>
        <time>2021-02-18T18:05:32.371Z</time>
      </trkpt>
      <trkpt lat="48.84475" lon="1.46309">
        <ele>78.404979</ele>
        <time>2021-02-18T18:05:43.599Z</time>
      </trkpt>
      <trkpt lat="48.8453" lon="1.46314">
        <ele>77.807882</ele>
        <time>2021-02-18T18:05:56.088Z</time>
      </trkpt>
      <trkpt lat="48.84554" lon="1.46306">
        <ele>77.540315</ele>
        <time>2021-02-18T18:06:01.291Z</time>
      </trkpt>
      <trkpt lat="48.84582" lon="1.46266">
        <ele>77.123917</ele>
        <time>2021-02-18T18:06:08.785Z</time>
      </trkpt>
      <trkpt lat="48.84649" lon="1.46206">
        <ele>76.262973</ele>
        <time>2021-02-18T18:06:23.425Z</time>
      </trkpt>
      <trkpt lat="48.84679" lon="1.46195">
        <ele>75.896516</ele>
        <time>2021-02-18T18:06:29.237Z</time>
      </trkpt>
      <trkpt lat="48.84684" lon="1.46193">
        <ele>75.829661</ele>
        <time>2021-02-18T18:06:30.323Z</time>
      </trkpt>
      <trkpt lat="48.84718" lon="1.46151">
        <ele>75.30715</ele>
        <time>2021-02-18T18:06:38.947Z</time>
      </trkpt>
      <trkpt lat="48.8475" lon="1.46059">
        <ele>74.493846</ele>
        <time>2021-02-18T18:06:53.106Z</time>
      </trkpt>
      <trkpt lat="48.84753" lon="1.46044">
        <ele>74.424819</ele>
        <time>2021-02-18T18:06:55.189Z</time>
      </trkpt>
      <trkpt lat="48.84756" lon="1.46045">
        <ele>74.424056</ele>
        <time>2021-02-18T18:06:55.928Z</time>
      </trkpt>
      <trkpt lat="48.84827" lon="1.45916">
        <ele>74.401293</ele>
        <time>2021-02-18T18:07:21.340Z</time>
      </trkpt>
      <trkpt lat="48.84864" lon="1.45787">
        <ele>74.465581</ele>
        <time>2021-02-18T18:07:44.002Z</time>
      </trkpt>
      <trkpt lat="48.84915" lon="1.45689">
        <ele>74.673574</ele>
        <time>2021-02-18T18:08:06.237Z</time>
      </trkpt>
      <trkpt lat="48.84937" lon="1.45661">
        <ele>74.744121</ele>
        <time>2021-02-18T18:08:12.866Z</time>
      </trkpt>
      <trkpt lat="48.84988" lon="1.45582">
        <ele>74.433535</ele>
        <time>2021-02-18T18:08:30.267Z</time>
      </trkpt>
      <trkpt lat="48.85013" lon="1.45559">
        <ele>74.095341</ele>
        <time>2021-02-18T18:08:36.582Z</time>
      </trkpt>
      <trkpt lat="48.8512" lon="1.45475">
        <ele>72.641103</ele>
        <time>2021-02-18T18:09:01.471Z</time>
      </trkpt>
      <trkpt lat="48.85182" lon="1.45426">
        <ele>71.20696</ele>
        <time>2021-02-18T18:09:14.872Z</time>
      </trkpt>
      <trkpt lat="48.85235" lon="1.45393">
        <ele>70.030552</ele>
        <time>2021-02-18T18:09:26.050Z</time>
      </trkpt>
      <trkpt lat="48.85294" lon="1.4538">
        <ele>68.957874</ele>
        <time>2021-02-18T18:09:37.810Z</time>
      </trkpt>
      <trkpt lat="48.85389" lon="1.45402">
        <ele>68.164506</ele>
        <time>2021-02-18T18:09:58.330Z</time>
      </trkpt>
      <trkpt lat="48.8545" lon="1.45438">
        <ele>67.628508</ele>
        <time>2021-02-18T18:10:13.480Z</time>
      </trkpt>
      <trkpt lat="48.85474" lon="1.4546">
        <ele>67.552386</ele>
        <time>2021-02-18T18:10:20.405Z</time>
      </trkpt>
      <trkpt lat="48.85506" lon="1.45505">
        <ele>67.523413</ele>
        <time>2021-02-18T18:10:31.575Z</time>
      </trkpt>
      <trkpt lat="48.85559" lon="1.45596">
        <ele>67.47089</ele>
        <time>2021-02-18T18:10:51.604Z</time>
      </trkpt>
      <trkpt lat="48.85633" lon="1.45721">
        <ele>66.955499</ele>
        <time>2021-02-18T18:11:16.865Z</time>
      </trkpt>
      <trkpt lat="48.8564" lon="1.45738">
        <ele>66.869056</ele>
        <time>2021-02-18T18:11:21.374Z</time>
      </trkpt>
      <trkpt lat="48.85674" lon="1.45856">
        <ele>66.3193</ele>
        <time>2021-02-18T18:11:51.436Z</time>
      </trkpt>
      <trkpt lat="48.85718" lon="1.45927">
        <ele>66.552789</ele>
        <time>2021-02-18T18:12:14.901Z</time>
      </trkpt>
      <trkpt lat="48.85775" lon="1.46003">
        <ele>66.918877</ele>
        <time>2021-02-18T18:12:47.637Z</time>
      </trkpt>
      <trkpt lat="48.85801" lon="1.46015">
        <ele>67.04993</ele>
        <time>2021-02-18T18:13:00.026Z</time>
      </trkpt>
      <trkpt lat="48.85827" lon="1.4601">
        <ele>67.239573</ele>
        <time>2021-02-18T18:13:11.412Z</time>
      </trkpt>
      <trkpt lat="48.85834" lon="1.46007">
        <ele>67.362746</ele>
        <time>2021-02-18T18:13:15.557Z</time>
      </trkpt>
      <trkpt lat="48.85858" lon="1.45997">
        <ele>67.740676</ele>
        <time>2021-02-18T18:13:26.874Z</time>
      </trkpt>
      <trkpt lat="48.85972" lon="1.45939">
        <ele>69.564008</ele>
        <time>2021-02-18T18:14:24.972Z</time>
      </trkpt>
      <trkpt lat="48.86025" lon="1.45911">
        <ele>70.271836</ele>
        <time>2021-02-18T18:14:51.283Z</time>
      </trkpt>
      <trkpt lat="48.86017" lon="1.45862">
        <ele>70.627631</ele>
        <time>2021-02-18T18:15:05.764Z</time>
      </trkpt>
      <trkpt lat="48.85997" lon="1.45781">
        <ele>71.247881</ele>
        <time>2021-02-18T18:15:30.809Z</time>
      </trkpt>
      <trkpt lat="48.85986" lon="1.45751">
        <ele>71.494148</ele>
        <time>2021-02-18T18:15:40.783Z</time>
      </trkpt>
      <trkpt lat="48.85932" lon="1.4561">
        <ele>72.234368</ele>
        <time>2021-02-18T18:16:27.949Z</time>
      </trkpt>
      <trkpt lat="48.85907" lon="1.45555">
        <ele>72.470203</ele>
        <time>2021-02-18T18:16:46.280Z</time>
      </trkpt>
      <trkpt lat="48.85885" lon="1.45506">
        <ele>72.678234</ele>
        <time>2021-02-18T18:17:01.700Z</time>
      </trkpt>
      <trkpt lat="48.85854" lon="1.4545">
        <ele>72.639171</ele>
        <time>2021-02-18T18:17:20.079Z</time>
      </trkpt>
      <trkpt lat="48.85824" lon="1.45394">
        <ele>72.388698</ele>
        <time>2021-02-18T18:17:37.571Z</time>
      </trkpt>
      <trkpt lat="48.85812" lon="1.45287">
        <ele>72.011806</ele>
        <time>2021-02-18T18:18:03.187Z</time>
      </trkpt>
      <trkpt lat="48.85771" lon="1.45163">
        <ele>71.221152</ele>
        <time>2021-02-18T18:18:35.325Z</time>
      </trkpt>
      <trkpt lat="48.85758" lon="1.45051">
        <ele>70.429853</ele>
        <time>2021-02-18T18:19:01.150Z</time>
      </trkpt>
      <trkpt lat="48.85752" lon="1.4499">
        <ele>69.995449</ele>
        <time>2021-02-18T18:19:15.338Z</time>
      </trkpt>
      <trkpt lat="48.85751" lon="1.4494">
        <ele>69.905292</ele>
        <time>2021-02-18T18:19:22.587Z</time>
      </trkpt>
      <trkpt lat="48.85748" lon="1.44876">
        <ele>69.874276</ele>
        <time>2021-02-18T18:19:32.464Z</time>
      </trkpt>
      <trkpt lat="48.85746" lon="1.44817">
        <ele>69.84587</ele>
        <time>2021-02-18T18:19:41.816Z</time>
      </trkpt>
      <trkpt lat="48.85743" lon="1.44776">
        <ele>69.826292</ele>
        <time>2021-02-18T18:19:48.310Z</time>
      </trkpt>
      <trkpt lat="48.85732" lon="1.44744">
        <ele>69.808534</ele>
        <time>2021-02-18T18:19:55.067Z</time>
      </trkpt>
      <trkpt lat="48.85678" lon="1.44553">
        <ele>70.383807</ele>
        <time>2021-02-18T18:20:34.454Z</time>
      </trkpt>
      <trkpt lat="48.85668" lon="1.44528">
        <ele>70.480658</ele>
        <time>2021-02-18T18:20:40.029Z</time>
      </trkpt>
      <trkpt lat="48.85825" lon="1.445">
        <ele>70.462643</ele>
        <time>2021-02-18T18:21:16.033Z</time>
      </trkpt>
      <trkpt lat="48.85809" lon="1.4426">
        <ele>69.827239</ele>
        <time>2021-02-18T18:21:52.158Z</time>
      </trkpt>
      <trkpt lat="48.8579" lon="1.44017">
        <ele>69.078105</ele>
        <time>2021-02-18T18:22:28.709Z</time>
      </trkpt>
      <trkpt lat="48.85801" lon="1.44016">
        <ele>69.032984</ele>
        <time>2021-02-18T18:22:31.301Z</time>
      </trkpt>
      <trkpt lat="48.85816" lon="1.44009">
        <ele>68.974317</ele>
        <time>2021-02-18T18:22:34.988Z</time>
      </trkpt>
      <trkpt lat="48.85823" lon="1.44">
        <ele>68.937009</ele>
        <time>2021-02-18T18:22:37.118Z</time>
      </trkpt>
      <trkpt lat="48.85822" lon="1.43995">
        <ele>68.924729</ele>
        <time>2021-02-18T18:22:37.780Z</time>
      </trkpt>
      <trkpt lat="48.85814" lon="1.43922">
        <ele>68.736674</ele>
        <time>2021-02-18T18:22:48.546Z</time>
      </trkpt>
      <trkpt lat="48.85813" lon="1.43898">
        <ele>68.674418</ele>
        <time>2021-02-18T18:22:52.311Z</time>
      </trkpt>
      <trkpt lat="48.85811" lon="1.43869">
        <ele>68.751531</ele>
        <time>2021-02-18T18:22:56.561Z</time>
      </trkpt>
      <trkpt lat="48.85807" lon="1.43816">
        <ele>68.939424</ele>
        <time>2021-02-18T18:23:04.783Z</time>
      </trkpt>
      <trkpt lat="48.85808" lon="1.43808">
        <ele>68.967311</ele>
        <time>2021-02-18T18:23:06.121Z</time>
      </trkpt>
      <trkpt lat="48.85806" lon="1.43785">
        <ele>69.046443</ele>
        <time>2021-02-18T18:23:09.564Z</time>
      </trkpt>
      <trkpt lat="48.85792" lon="1.43804">
        <ele>69.141479</ele>
        <time>2021-02-18T18:23:14.316Z</time>
      </trkpt>
      <trkpt lat="48.8578" lon="1.43813">
        <ele>69.212363</ele>
        <time>2021-02-18T18:23:17.995Z</time>
      </trkpt>
      <trkpt lat="48.85749" lon="1.43838">
        <ele>69.399027</ele>
        <time>2021-02-18T18:23:27.947Z</time>
      </trkpt>
      <trkpt lat="48.85736" lon="1.4385">
        <ele>69.481417</ele>
        <time>2021-02-18T18:23:32.329Z</time>
      </trkpt>
      <trkpt lat="48.85733" lon="1.43852">
        <ele>69.498745</ele>
        <time>2021-02-18T18:23:33.539Z</time>
      </trkpt>
      <trkpt lat="48.85703" lon="1.43876">
        <ele>69.860258</ele>
        <time>2021-02-18T18:23:43.902Z</time>
      </trkpt>
      <trkpt lat="48.85658" lon="1.43911">
        <ele>70.973854</ele>
        <time>2021-02-18T18:24:01.372Z</time>
      </trkpt>
      <trkpt lat="48.85652" lon="1.43917">
        <ele>71.127019</ele>
        <time>2021-02-18T18:24:03.924Z</time>
      </trkpt>
      <trkpt lat="48.85643" lon="1.43923">
        <ele>71.330895</ele>
        <time>2021-02-18T18:24:07.238Z</time>
      </trkpt>
      <trkpt lat="48.85612" lon="1.43947">
        <ele>72.094086</ele>
        <time>2021-02-18T18:24:20.901Z</time>
      </trkpt>
      <trkpt lat="48.85592" lon="1.43961">
        <ele>72.580719</ele>
        <time>2021-02-18T18:24:30.092Z</time>
      </trkpt>
      <trkpt lat="48.85584" lon="1.43967">
        <ele>72.772854</ele>
        <time>2021-02-18T18:24:33.412Z</time>
      </trkpt>
      <trkpt lat="48.85514" lon="1.44021">
        <ele>74.973748</ele>
        <time>2021-02-18T18:25:05.764Z</time>
      </trkpt>
      <trkpt lat="48.85508" lon="1.44025">
        <ele>75.202229</ele>
        <time>2021-02-18T18:25:08.694Z</time>
      </trkpt>
      <trkpt lat="48.85502" lon="1.4403">
        <ele>75.410998</ele>
        <time>2021-02-18T18:25:11.987Z</time>
      </trkpt>
      <trkpt lat="48.85444" lon="1.44076">
        <ele>77.59232</ele>
        <time>2021-02-18T18:25:41.967Z</time>
      </trkpt>
      <trkpt lat="48.85339" lon="1.44159">
        <ele>82.616283</ele>
        <time>2021-02-18T18:26:34.968Z</time>
      </trkpt>
      <trkpt lat="48.85333" lon="1.44164">
        <ele>82.952534</ele>
        <time>2021-02-18T18:26:39.516Z</time>
      </trkpt>
      <trkpt lat="48.85323" lon="1.44182">
        <ele>83.775423</ele>
        <time>2021-02-18T18:26:47.560Z</time>
      </trkpt>
      <trkpt lat="48.85331" lon="1.44218">
        <ele>85.063986</ele>
        <time>2021-02-18T18:27:01.031Z</time>
      </trkpt>
      <trkpt lat="48.85338" lon="1.44249">
        <ele>86.159823</ele>
        <time>2021-02-18T18:27:11.477Z</time>
      </trkpt>
      <trkpt lat="48.8533" lon="1.44262">
        <ele>86.79887</ele>
        <time>2021-02-18T18:27:19.856Z</time>
      </trkpt>
      <trkpt lat="48.85321" lon="1.44288">
        <ele>87.780702</ele>
        <time>2021-02-18T18:27:29.963Z</time>
      </trkpt>
      <trkpt lat="48.85318" lon="1.44298">
        <ele>88.130977</ele>
        <time>2021-02-18T18:27:33.628Z</time>
      </trkpt>
      <trkpt lat="48.85312" lon="1.44296">
        <ele>88.431391</ele>
        <time>2021-02-18T18:27:38.638Z</time>
      </trkpt>
      <trkpt lat="48.85098" lon="1.44448">
        <ele>108.018317</ele>
        <time>2021-02-18T18:30:37.787Z</time>
      </trkpt>
      <trkpt lat="48.85013" lon="1.44523">
        <ele>116.452318</ele>
        <time>2021-02-18T18:31:55.690Z</time>
      </trkpt>
      <trkpt lat="48.84976" lon="1.44556">
        <ele>119.74404</ele>
        <time>2021-02-18T18:32:25.976Z</time>
      </trkpt>
      <trkpt lat="48.84917" lon="1.44503">
        <ele>123.530143</ele>
        <time>2021-02-18T18:33:20.270Z</time>
      </trkpt>
      <trkpt lat="48.84865" lon="1.44381">
        <ele>128.793559</ele>
        <time>2021-02-18T18:34:22.519Z</time>
      </trkpt>
      <trkpt lat="48.84834" lon="1.44344">
        <ele>129.721482</ele>
        <time>2021-02-18T18:34:44.315Z</time>
      </trkpt>
      <trkpt lat="48.84785" lon="1.44296">
        <ele>130.896231</ele>
        <time>2021-02-18T18:35:14.524Z</time>
      </trkpt>
      <trkpt lat="48.84762" lon="1.44259">
        <ele>131.569412</ele>
        <time>2021-02-18T18:35:30.919Z</time>
      </trkpt>
      <trkpt lat="48.84687" lon="1.44101">
        <ele>132.897837</ele>
        <time>2021-02-18T18:36:25.501Z</time>
      </trkpt>
      <trkpt lat="48.84659" lon="1.44045">
        <ele>133.067211</ele>
        <time>2021-02-18T18:36:42.655Z</time>
      </trkpt>
      <trkpt lat="48.84635" lon="1.43942">
        <ele>133.396555</ele>
        <time>2021-02-18T18:37:10.620Z</time>
      </trkpt>
      <trkpt lat="48.84626" lon="1.43851">
        <ele>133.912214</ele>
        <time>2021-02-18T18:37:36.318Z</time>
      </trkpt>
      <trkpt lat="48.84555" lon="1.43822">
        <ele>134.539735</ele>
        <time>2021-02-18T18:38:10.015Z</time>
      </trkpt>
      <trkpt lat="48.84419" lon="1.43825">
        <ele>135.269824</ele>
        <time>2021-02-18T18:39:10.196Z</time>
      </trkpt>
      <trkpt lat="48.84419" lon="1.43825">
        <ele>135.269824</ele>
        <time>2021-02-18T18:39:10.201Z</time>
      </trkpt>
      <trkpt lat="48.84419" lon="1.43825">
        <ele>135.269824</ele>
        <time>2021-02-18T18:39:10.242Z</time>
      </trkpt>
      <trkpt lat="48.84154" lon="1.43839">
        <ele>135.113105</ele>
        <time>2021-02-18T18:40:47.891Z</time>
      </trkpt>
      <trkpt lat="48.84083" lon="1.43368">
        <ele>136.431324</ele>
        <time>2021-02-18T18:42:57.743Z</time>
      </trkpt>
      <trkpt lat="48.84045" lon="1.43117">
        <ele>137.41572</ele>
        <time>2021-02-18T18:44:10.980Z</time>
      </trkpt>
      <trkpt lat="48.84192" lon="1.42812">
        <ele>137.287965</ele>
        <time>2021-02-18T18:45:47.020Z</time>
      </trkpt>
      <trkpt lat="48.84189" lon="1.42791">
        <ele>137.093202</ele>
        <time>2021-02-18T18:45:52.029Z</time>
      </trkpt>
      <trkpt lat="48.84182" lon="1.42764">
        <ele>136.845066</ele>
        <time>2021-02-18T18:45:58.700Z</time>
      </trkpt>
      <trkpt lat="48.84162" lon="1.42727">
        <ele>136.431334</ele>
        <time>2021-02-18T18:46:09.308Z</time>
      </trkpt>
      <trkpt lat="48.84123" lon="1.42675">
        <ele>135.741835</ele>
        <time>2021-02-18T18:46:26.530Z</time>
      </trkpt>
      <trkpt lat="48.84074" lon="1.4258">
        <ele>134.872295</ele>
        <time>2021-02-18T18:46:52.734Z</time>
      </trkpt>
      <trkpt lat="48.84042" lon="1.42512">
        <ele>134.364712</ele>
        <time>2021-02-18T18:47:11.895Z</time>
      </trkpt>
      <trkpt lat="48.84029" lon="1.42475">
        <ele>134.109412</ele>
        <time>2021-02-18T18:47:18.167Z</time>
      </trkpt>
      <trkpt lat="48.84027" lon="1.42462">
        <ele>134.030316</ele>
        <time>2021-02-18T18:47:20.089Z</time>
      </trkpt>
      <trkpt lat="48.8403" lon="1.42377">
        <ele>133.68517</ele>
        <time>2021-02-18T18:47:33.574Z</time>
      </trkpt>
      <trkpt lat="48.84031" lon="1.42372">
        <ele>133.710839</ele>
        <time>2021-02-18T18:47:34.510Z</time>
      </trkpt>
      <trkpt lat="48.84032" lon="1.42363">
        <ele>133.746733</ele>
        <time>2021-02-18T18:47:35.806Z</time>
      </trkpt>
      <trkpt lat="48.84032" lon="1.42347">
        <ele>133.818292</ele>
        <time>2021-02-18T18:47:38.711Z</time>
      </trkpt>
      <trkpt lat="48.84036" lon="1.42235">
        <ele>134.308316</ele>
        <time>2021-02-18T18:47:59.278Z</time>
      </trkpt>
      <trkpt lat="48.84038" lon="1.4219">
        <ele>134.50548</ele>
        <time>2021-02-18T18:48:07.149Z</time>
      </trkpt>
      <trkpt lat="48.84038" lon="1.42177">
        <ele>134.55998</ele>
        <time>2021-02-18T18:48:09.915Z</time>
      </trkpt>
      <trkpt lat="48.84038" lon="1.42164">
        <ele>134.615433</ele>
        <time>2021-02-18T18:48:13.381Z</time>
      </trkpt>
      <trkpt lat="48.84031" lon="1.42129">
        <ele>134.777796</ele>
        <time>2021-02-18T18:48:25.098Z</time>
      </trkpt>
      <trkpt lat="48.83973" lon="1.41982">
        <ele>136.442731</ele>
        <time>2021-02-18T18:49:19.005Z</time>
      </trkpt>
      <trkpt lat="48.83981" lon="1.41921">
        <ele>137.055536</ele>
        <time>2021-02-18T18:49:38.019Z</time>
      </trkpt>
      <trkpt lat="48.84008" lon="1.41795">
        <ele>138.149556</ele>
        <time>2021-02-18T18:50:19.322Z</time>
      </trkpt>
      <trkpt lat="48.8399" lon="1.41742">
        <ele>138.584567</ele>
        <time>2021-02-18T18:50:38.063Z</time>
      </trkpt>
      <trkpt lat="48.83978" lon="1.4169">
        <ele>138.985935</ele>
        <time>2021-02-18T18:50:54.012Z</time>
      </trkpt>
      <trkpt lat="48.8393" lon="1.41483">
        <ele>140.065533</ele>
        <time>2021-02-18T18:51:53.070Z</time>
      </trkpt>
      <trkpt lat="48.83912" lon="1.41457">
        <ele>140.206426</ele>
        <time>2021-02-18T18:52:03.172Z</time>
      </trkpt>
      <trkpt lat="48.83888" lon="1.41439">
        <ele>140.360958</ele>
        <time>2021-02-18T18:52:14.660Z</time>
      </trkpt>
      <trkpt lat="48.83867" lon="1.41418">
        <ele>140.501951</ele>
        <time>2021-02-18T18:52:25.073Z</time>
      </trkpt>
      <trkpt lat="48.83839" lon="1.41406">
        <ele>140.704577</ele>
        <time>2021-02-18T18:52:37.843Z</time>
      </trkpt>
      <trkpt lat="48.83814" lon="1.41378">
        <ele>140.922676</ele>
        <time>2021-02-18T18:52:51.031Z</time>
      </trkpt>
      <trkpt lat="48.83785" lon="1.41285">
        <ele>141.400867</ele>
        <time>2021-02-18T18:53:20.493Z</time>
      </trkpt>
      <trkpt lat="48.83761" lon="1.41235">
        <ele>141.691388</ele>
        <time>2021-02-18T18:53:37.612Z</time>
      </trkpt>
      <trkpt lat="48.83724" lon="1.41191">
        <ele>141.832033</ele>
        <time>2021-02-18T18:53:56.795Z</time>
      </trkpt>
      <trkpt lat="48.83705" lon="1.41163">
        <ele>141.843248</ele>
        <time>2021-02-18T18:54:07.873Z</time>
      </trkpt>
      <trkpt lat="48.83698" lon="1.41156">
        <ele>141.846718</ele>
        <time>2021-02-18T18:54:11.027Z</time>
      </trkpt>
      <trkpt lat="48.83699" lon="1.41123">
        <ele>141.855736</ele>
        <time>2021-02-18T18:54:19.659Z</time>
      </trkpt>
      <trkpt lat="48.83657" lon="1.40989">
        <ele>141.863917</ele>
        <time>2021-02-18T18:54:56.211Z</time>
      </trkpt>
      <trkpt lat="48.83646" lon="1.40978">
        <ele>141.719283</ele>
        <time>2021-02-18T18:55:01.040Z</time>
      </trkpt>
      <trkpt lat="48.83625" lon="1.40961">
        <ele>141.442675</ele>
        <time>2021-02-18T18:55:09.802Z</time>
      </trkpt>
      <trkpt lat="48.83506" lon="1.40881">
        <ele>139.980066</ele>
        <time>2021-02-18T18:55:54.634Z</time>
      </trkpt>
      <trkpt lat="48.83476" lon="1.4088">
        <ele>139.555328</ele>
        <time>2021-02-18T18:56:04.570Z</time>
      </trkpt>
      <trkpt lat="48.83438" lon="1.40862">
        <ele>138.933605</ele>
        <time>2021-02-18T18:56:17.755Z</time>
      </trkpt>
      <trkpt lat="48.8341" lon="1.40825">
        <ele>138.360792</ele>
        <time>2021-02-18T18:56:29.882Z</time>
      </trkpt>
      <trkpt lat="48.83354" lon="1.40734">
        <ele>137.088952</ele>
        <time>2021-02-18T18:56:57.702Z</time>
      </trkpt>
      <trkpt lat="48.83327" lon="1.40707">
        <ele>137.130543</ele>
        <time>2021-02-18T18:57:09.543Z</time>
      </trkpt>
      <trkpt lat="48.83316" lon="1.4071">
        <ele>137.148892</ele>
        <time>2021-02-18T18:57:13.087Z</time>
      </trkpt>
      <trkpt lat="48.83293" lon="1.40701">
        <ele>137.191391</ele>
        <time>2021-02-18T18:57:22.736Z</time>
      </trkpt>
      <trkpt lat="48.8326" lon="1.40696">
        <ele>137.249372</ele>
        <time>2021-02-18T18:57:35.732Z</time>
      </trkpt>
      <trkpt lat="48.83221" lon="1.4066">
        <ele>137.329069</ele>
        <time>2021-02-18T18:57:54.564Z</time>
      </trkpt>
      <trkpt lat="48.83138" lon="1.40586">
        <ele>137.864259</ele>
        <time>2021-02-18T18:58:38.512Z</time>
      </trkpt>
      <trkpt lat="48.83122" lon="1.40566">
        <ele>138.025381</ele>
        <time>2021-02-18T18:58:48.527Z</time>
      </trkpt>
      <trkpt lat="48.83077" lon="1.40464">
        <ele>138.656678</ele>
        <time>2021-02-18T18:59:23.161Z</time>
      </trkpt>
      <trkpt lat="48.83059" lon="1.40399">
        <ele>138.325829</ele>
        <time>2021-02-18T18:59:40.585Z</time>
      </trkpt>
      <trkpt lat="48.83058" lon="1.40381">
        <ele>138.132025</ele>
        <time>2021-02-18T18:59:45.338Z</time>
      </trkpt>
      <trkpt lat="48.8306" lon="1.40359">
        <ele>137.903436</ele>
        <time>2021-02-18T18:59:50.280Z</time>
      </trkpt>
      <trkpt lat="48.83089" lon="1.4019">
        <ele>136.076724</ele>
        <time>2021-02-18T19:00:28.807Z</time>
      </trkpt>
      <trkpt lat="48.83071" lon="1.40039">
        <ele>131.893991</ele>
        <time>2021-02-18T19:00:58.792Z</time>
      </trkpt>
      <trkpt lat="48.83035" lon="1.39922">
        <ele>128.165996</ele>
        <time>2021-02-18T19:01:23.414Z</time>
      </trkpt>
      <trkpt lat="48.83033" lon="1.39914">
        <ele>128.001311</ele>
        <time>2021-02-18T19:01:24.818Z</time>
      </trkpt>
      <trkpt lat="48.83026" lon="1.39841">
        <ele>127.088369</ele>
        <time>2021-02-18T19:01:39.103Z</time>
      </trkpt>
      <trkpt lat="48.83026" lon="1.39802">
        <ele>126.590429</ele>
        <time>2021-02-18T19:01:47.182Z</time>
      </trkpt>
      <trkpt lat="48.83047" lon="1.39634">
        <ele>124.905404</ele>
        <time>2021-02-18T19:02:27.592Z</time>
      </trkpt>
      <trkpt lat="48.83058" lon="1.3958">
        <ele>125.883491</ele>
        <time>2021-02-18T19:02:49.600Z</time>
      </trkpt>
      <trkpt lat="48.83067" lon="1.3954">
        <ele>126.608181</ele>
        <time>2021-02-18T19:03:07.041Z</time>
      </trkpt>
      <trkpt lat="48.83079" lon="1.39506">
        <ele>127.275591</ele>
        <time>2021-02-18T19:03:21.742Z</time>
      </trkpt>
      <trkpt lat="48.83118" lon="1.39405">
        <ele>129.320243</ele>
        <time>2021-02-18T19:04:06.463Z</time>
      </trkpt>
      <trkpt lat="48.83113" lon="1.39404">
        <ele>129.418309</ele>
        <time>2021-02-18T19:04:08.517Z</time>
      </trkpt>
      <trkpt lat="48.83108" lon="1.39402">
        <ele>129.474354</ele>
        <time>2021-02-18T19:04:09.828Z</time>
      </trkpt>
      <trkpt lat="48.83047" lon="1.3941">
        <ele>130.107514</ele>
        <time>2021-02-18T19:04:32.038Z</time>
      </trkpt>
      <trkpt lat="48.82951" lon="1.39393">
        <ele>131.109961</ele>
        <time>2021-02-18T19:04:56.418Z</time>
      </trkpt>
      <trkpt lat="48.82935" lon="1.39381">
        <ele>131.251512</ele>
        <time>2021-02-18T19:04:59.983Z</time>
      </trkpt>
      <trkpt lat="48.82929" lon="1.39346">
        <ele>131.157857</ele>
        <time>2021-02-18T19:05:05.519Z</time>
      </trkpt>
      <trkpt lat="48.82914" lon="1.39221">
        <ele>130.837743</ele>
        <time>2021-02-18T19:05:23.225Z</time>
      </trkpt>
      <trkpt lat="48.82903" lon="1.39183">
        <ele>130.732815</ele>
        <time>2021-02-18T19:05:29.321Z</time>
      </trkpt>
      <trkpt lat="48.8288" lon="1.39146">
        <ele>130.604077</ele>
        <time>2021-02-18T19:05:36.759Z</time>
      </trkpt>
      <trkpt lat="48.8285" lon="1.39069">
        <ele>130.55451</ele>
        <time>2021-02-18T19:05:49.575Z</time>
      </trkpt>
      <trkpt lat="48.82829" lon="1.39033">
        <ele>130.543407</ele>
        <time>2021-02-18T19:05:56.551Z</time>
      </trkpt>
      <trkpt lat="48.82778" lon="1.38956">
        <ele>130.518144</ele>
        <time>2021-02-18T19:06:12.661Z</time>
      </trkpt>
      <trkpt lat="48.82597" lon="1.38776">
        <ele>132.415703</ele>
        <time>2021-02-18T19:07:15.659Z</time>
      </trkpt>
      <trkpt lat="48.82508" lon="1.38702">
        <ele>133.636705</ele>
        <time>2021-02-18T19:07:48.359Z</time>
      </trkpt>
      <trkpt lat="48.82456" lon="1.38678">
        <ele>134.28298</ele>
        <time>2021-02-18T19:08:03.996Z</time>
      </trkpt>
      <trkpt lat="48.82436" lon="1.38669">
        <ele>134.471063</ele>
        <time>2021-02-18T19:08:09.920Z</time>
      </trkpt>
      <trkpt lat="48.82405" lon="1.38681">
        <ele>134.592896</ele>
        <time>2021-02-18T19:08:18.377Z</time>
      </trkpt>
      <trkpt lat="48.82387" lon="1.387">
        <ele>134.677854</ele>
        <time>2021-02-18T19:08:23.966Z</time>
      </trkpt>
      <trkpt lat="48.82388" lon="1.38682">
        <ele>134.724072</ele>
        <time>2021-02-18T19:08:27.075Z</time>
      </trkpt>
      <trkpt lat="48.82387" lon="1.38651">
        <ele>134.802567</ele>
        <time>2021-02-18T19:08:32.067Z</time>
      </trkpt>
      <trkpt lat="48.82375" lon="1.386">
        <ele>134.938204</ele>
        <time>2021-02-18T19:08:40.658Z</time>
      </trkpt>
      <trkpt lat="48.82377" lon="1.38567">
        <ele>135.021578</ele>
        <time>2021-02-18T19:08:45.985Z</time>
      </trkpt>
      <trkpt lat="48.82382" lon="1.38488">
        <ele>135.282281</ele>
        <time>2021-02-18T19:08:58.033Z</time>
      </trkpt>
      <trkpt lat="48.82386" lon="1.38441">
        <ele>135.481622</ele>
        <time>2021-02-18T19:09:05.716Z</time>
      </trkpt>
      <trkpt lat="48.82407" lon="1.3835">
        <ele>135.884714</ele>
        <time>2021-02-18T19:09:22.407Z</time>
      </trkpt>
      <trkpt lat="48.82426" lon="1.38281">
        <ele>136.197871</ele>
        <time>2021-02-18T19:09:36.581Z</time>
      </trkpt>
      <trkpt lat="48.82466" lon="1.38175">
        <ele>137.199967</ele>
        <time>2021-02-18T19:10:02.161Z</time>
      </trkpt>
      <trkpt lat="48.82492" lon="1.38044">
        <ele>138.424783</ele>
        <time>2021-02-18T19:10:31.150Z</time>
      </trkpt>
      <trkpt lat="48.82493" lon="1.3803">
        <ele>138.554994</ele>
        <time>2021-02-18T19:10:33.989Z</time>
      </trkpt>
      <trkpt lat="48.82494" lon="1.38009">
        <ele>138.728934</ele>
        <time>2021-02-18T19:10:38.667Z</time>
      </trkpt>
      <trkpt lat="48.82491" lon="1.3792">
        <ele>138.956144</ele>
        <time>2021-02-18T19:10:55.259Z</time>
      </trkpt>
      <trkpt lat="48.82489" lon="1.37903">
        <ele>138.99883</ele>
        <time>2021-02-18T19:10:58.768Z</time>
      </trkpt>
      <trkpt lat="48.82484" lon="1.37534">
        <ele>139.151836</ele>
        <time>2021-02-18T19:12:00.274Z</time>
      </trkpt>
      <trkpt lat="48.82486" lon="1.37012">
        <ele>138.148244</ele>
        <time>2021-02-18T19:13:25.206Z</time>
      </trkpt>
      <trkpt lat="48.82486" lon="1.37003">
        <ele>138.128855</ele>
        <time>2021-02-18T19:13:26.459Z</time>
      </trkpt>
      <trkpt lat="48.82486" lon="1.36899">
        <ele>137.935891</ele>
        <time>2021-02-18T19:13:43.163Z</time>
      </trkpt>
      <trkpt lat="48.82486" lon="1.36334">
        <ele>137.997322</ele>
        <time>2021-02-18T19:15:19.620Z</time>
      </trkpt>
      <trkpt lat="48.82486" lon="1.36229">
        <ele>138.202279</ele>
        <time>2021-02-18T19:15:38.725Z</time>
      </trkpt>
      <trkpt lat="48.82846" lon="1.3629">
        <ele>138.611316</ele>
        <time>2021-02-18T19:18:05.598Z</time>
      </trkpt>
      <trkpt lat="48.82884" lon="1.36356">
        <ele>138.25942</ele>
        <time>2021-02-18T19:18:25.473Z</time>
      </trkpt>
      <trkpt lat="48.82955" lon="1.3642">
        <ele>137.473894</ele>
        <time>2021-02-18T19:18:51.963Z</time>
      </trkpt>
      <trkpt lat="48.82974" lon="1.36454">
        <ele>137.152879</ele>
        <time>2021-02-18T19:19:02.232Z</time>
      </trkpt>
      <trkpt lat="48.82997" lon="1.36437">
        <ele>136.867569</ele>
        <time>2021-02-18T19:19:11.273Z</time>
      </trkpt>
      <trkpt lat="48.83035" lon="1.36424">
        <ele>136.441548</ele>
        <time>2021-02-18T19:19:25.267Z</time>
      </trkpt>
      <trkpt lat="48.83049" lon="1.36431">
        <ele>136.276473</ele>
        <time>2021-02-18T19:19:30.036Z</time>
      </trkpt>
      <trkpt lat="48.83052" lon="1.36436">
        <ele>136.228455</ele>
        <time>2021-02-18T19:19:30.749Z</time>
      </trkpt>
      <trkpt lat="48.83049" lon="1.36431">
        <ele>136.180438</ele>
        <time>2021-02-18T19:19:33.628Z</time>
      </trkpt>
      <trkpt lat="48.83035" lon="1.36424">
        <ele>136.250471</ele>
        <time>2021-02-18T19:19:41.778Z</time>
      </trkpt>
      <trkpt lat="48.82997" lon="1.36437">
        <ele>136.74371</ele>
        <time>2021-02-18T19:19:57.892Z</time>
      </trkpt>
      <trkpt lat="48.82974" lon="1.36454">
        <ele>137.074037</ele>
        <time>2021-02-18T19:20:09.486Z</time>
      </trkpt>
      <trkpt lat="48.82955" lon="1.3642">
        <ele>137.445704</ele>
        <time>2021-02-18T19:20:22.331Z</time>
      </trkpt>
      <trkpt lat="48.82884" lon="1.36356">
        <ele>138.442747</ele>
        <time>2021-02-18T19:21:06.312Z</time>
      </trkpt>
      <trkpt lat="48.82846" lon="1.3629">
        <ele>138.668982</ele>
        <time>2021-02-18T19:21:32.993Z</time>
      </trkpt>
      <trkpt lat="48.82486" lon="1.36229">
        <ele>138.197361</ele>
        <time>2021-02-18T19:23:46.054Z</time>
      </trkpt>
      <trkpt lat="48.82486" lon="1.36334">
        <ele>138.008953</ele>
        <time>2021-02-18T19:24:03.270Z</time>
      </trkpt>
      <trkpt lat="48.82486" lon="1.36899">
        <ele>137.751021</ele>
        <time>2021-02-18T19:25:38.119Z</time>
      </trkpt>
      <trkpt lat="48.82486" lon="1.37003">
        <ele>137.81031</ele>
        <time>2021-02-18T19:25:55.809Z</time>
      </trkpt>
      <trkpt lat="48.82486" lon="1.37012">
        <ele>137.82065</ele>
        <time>2021-02-18T19:25:57.681Z</time>
      </trkpt>
      <trkpt lat="48.82327" lon="1.3703">
        <ele>138.185624</ele>
        <time>2021-02-18T19:27:00.135Z</time>
      </trkpt>
      <trkpt lat="48.82245" lon="1.3704">
        <ele>138.640759</ele>
        <time>2021-02-18T19:27:33.211Z</time>
      </trkpt>
      <trkpt lat="48.81875" lon="1.37084">
        <ele>141.728517</ele>
        <time>2021-02-18T19:30:17.085Z</time>
      </trkpt>
      <trkpt lat="48.81874" lon="1.37136">
        <ele>141.985661</ele>
        <time>2021-02-18T19:30:30.981Z</time>
      </trkpt>
      <trkpt lat="48.81861" lon="1.37358">
        <ele>142.340878</ele>
        <time>2021-02-18T19:31:29.136Z</time>
      </trkpt>
      <trkpt lat="48.81874" lon="1.37136">
        <ele>142.177612</ele>
        <time>2021-02-18T19:32:24.952Z</time>
      </trkpt>
      <trkpt lat="48.81875" lon="1.37084">
        <ele>142.086007</ele>
        <time>2021-02-18T19:32:37.577Z</time>
      </trkpt>
      <trkpt lat="48.81291" lon="1.37028">
        <ele>138.755776</ele>
        <time>2021-02-18T19:36:09.363Z</time>
      </trkpt>
      <trkpt lat="48.81441" lon="1.36255">
        <ele>134.302873</ele>
        <time>2021-02-18T19:39:19.434Z</time>
      </trkpt>
      <trkpt lat="48.81292" lon="1.36291">
        <ele>131.166173</ele>
        <time>2021-02-18T19:40:08.275Z</time>
      </trkpt>
      <trkpt lat="48.81228" lon="1.36307">
        <ele>129.553348</ele>
        <time>2021-02-18T19:40:28.826Z</time>
      </trkpt>
      <trkpt lat="48.81151" lon="1.36345">
        <ele>126.572991</ele>
        <time>2021-02-18T19:40:54.697Z</time>
      </trkpt>
      <trkpt lat="48.81067" lon="1.36412">
        <ele>122.995045</ele>
        <time>2021-02-18T19:41:22.584Z</time>
      </trkpt>
      <trkpt lat="48.81044" lon="1.36428">
        <ele>121.794284</ele>
        <time>2021-02-18T19:41:29.577Z</time>
      </trkpt>
      <trkpt lat="48.80968" lon="1.3648">
        <ele>117.721723</ele>
        <time>2021-02-18T19:41:53.551Z</time>
      </trkpt>
      <trkpt lat="48.80924" lon="1.36558">
        <ele>114.577668</ele>
        <time>2021-02-18T19:42:13.302Z</time>
      </trkpt>
      <trkpt lat="48.80883" lon="1.36694">
        <ele>113.752915</ele>
        <time>2021-02-18T19:42:44.927Z</time>
      </trkpt>
      <trkpt lat="48.80861" lon="1.36745">
        <ele>113.416018</ele>
        <time>2021-02-18T19:43:02.701Z</time>
      </trkpt>
      <trkpt lat="48.80858" lon="1.36754">
        <ele>113.361571</ele>
        <time>2021-02-18T19:43:05.988Z</time>
      </trkpt>
      <trkpt lat="48.80756" lon="1.36845">
        <ele>115.543088</ele>
        <time>2021-02-18T19:44:08.731Z</time>
      </trkpt>
      <trkpt lat="48.80735" lon="1.36846">
        <ele>116.124348</ele>
        <time>2021-02-18T19:44:20.371Z</time>
      </trkpt>
      <trkpt lat="48.80803" lon="1.3698">
        <ele>119.174222</ele>
        <time>2021-02-18T19:45:26.658Z</time>
      </trkpt>
      <trkpt lat="48.80697" lon="1.36936">
        <ele>121.981122</ele>
        <time>2021-02-18T19:46:26.066Z</time>
      </trkpt>
      <trkpt lat="48.80626" lon="1.36866">
        <ele>122.91517</ele>
        <time>2021-02-18T19:47:05.768Z</time>
      </trkpt>
      <trkpt lat="48.80616" lon="1.36843">
        <ele>122.964128</ele>
        <time>2021-02-18T19:47:11.878Z</time>
      </trkpt>
      <trkpt lat="48.80601" lon="1.36757">
        <ele>123.122532</ele>
        <time>2021-02-18T19:47:35.038Z</time>
      </trkpt>
      <trkpt lat="48.80589" lon="1.36744">
        <ele>123.163948</ele>
        <time>2021-02-18T19:47:40.066Z</time>
      </trkpt>
      <trkpt lat="48.8053" lon="1.36819">
        <ele>123.904609</ele>
        <time>2021-02-18T19:48:07.870Z</time>
      </trkpt>
      <trkpt lat="48.8051" lon="1.36863">
        <ele>124.449606</ele>
        <time>2021-02-18T19:48:24.304Z</time>
      </trkpt>
      <trkpt lat="48.80498" lon="1.36888">
        <ele>124.762207</ele>
        <time>2021-02-18T19:48:34.553Z</time>
      </trkpt>
      <trkpt lat="48.80441" lon="1.37219">
        <ele>129.115702</ele>
        <time>2021-02-18T19:50:37.771Z</time>
      </trkpt>
      <trkpt lat="48.80402" lon="1.37229">
        <ele>129.86108</ele>
        <time>2021-02-18T19:50:56.118Z</time>
      </trkpt>
      <trkpt lat="48.80324" lon="1.37248">
        <ele>128.716721</ele>
        <time>2021-02-18T19:51:24.890Z</time>
      </trkpt>
      <trkpt lat="48.80294" lon="1.37244">
        <ele>128.283479</ele>
        <time>2021-02-18T19:51:34.822Z</time>
      </trkpt>
      <trkpt lat="48.80247" lon="1.3727">
        <ele>127.570203</ele>
        <time>2021-02-18T19:51:50.491Z</time>
      </trkpt>
      <trkpt lat="48.80242" lon="1.3727">
        <ele>127.490758</ele>
        <time>2021-02-18T19:51:52.247Z</time>
      </trkpt>
      <trkpt lat="48.80221" lon="1.37272">
        <ele>127.011697</ele>
        <time>2021-02-18T19:51:58.720Z</time>
      </trkpt>
      <trkpt lat="48.80185" lon="1.37255">
        <ele>125.76917</ele>
        <time>2021-02-18T19:52:10.028Z</time>
      </trkpt>
      <trkpt lat="48.80162" lon="1.37254">
        <ele>124.989467</ele>
        <time>2021-02-18T19:52:17.056Z</time>
      </trkpt>
      <trkpt lat="48.80008" lon="1.37355">
        <ele>120.685369</ele>
        <time>2021-02-18T19:53:08.750Z</time>
      </trkpt>
      <trkpt lat="48.79935" lon="1.37429">
        <ele>119.752366</ele>
        <time>2021-02-18T19:53:40.462Z</time>
      </trkpt>
      <trkpt lat="48.79893" lon="1.37547">
        <ele>120.470916</ele>
        <time>2021-02-18T19:54:20.753Z</time>
      </trkpt>
      <trkpt lat="48.79837" lon="1.37701">
        <ele>122.820679</ele>
        <time>2021-02-18T19:55:22.583Z</time>
      </trkpt>
      <trkpt lat="48.79848" lon="1.3778">
        <ele>123.896578</ele>
        <time>2021-02-18T19:55:50.833Z</time>
      </trkpt>
      <trkpt lat="48.79848" lon="1.37798">
        <ele>124.143075</ele>
        <time>2021-02-18T19:55:57.192Z</time>
      </trkpt>
      <trkpt lat="48.79838" lon="1.37794">
        <ele>124.346195</ele>
        <time>2021-02-18T19:56:02.329Z</time>
      </trkpt>
      <trkpt lat="48.79818" lon="1.37741">
        <ele>125.153718</ele>
        <time>2021-02-18T19:56:22.362Z</time>
      </trkpt>
      <trkpt lat="48.79787" lon="1.37686">
        <ele>126.125126</ele>
        <time>2021-02-18T19:56:45.850Z</time>
      </trkpt>
      <trkpt lat="48.79771" lon="1.37676">
        <ele>126.47916</ele>
        <time>2021-02-18T19:56:54.339Z</time>
      </trkpt>
      <trkpt lat="48.79745" lon="1.37683">
        <ele>126.732236</ele>
        <time>2021-02-18T19:57:07.096Z</time>
      </trkpt>
      <trkpt lat="48.7973" lon="1.37736">
        <ele>126.85146</ele>
        <time>2021-02-18T19:57:25.176Z</time>
      </trkpt>
      <trkpt lat="48.79702" lon="1.37758">
        <ele>126.949806</ele>
        <time>2021-02-18T19:57:39.343Z</time>
      </trkpt>
      <trkpt lat="48.79651" lon="1.37773">
        <ele>127.112425</ele>
        <time>2021-02-18T19:57:59.053Z</time>
      </trkpt>
      <trkpt lat="48.79603" lon="1.37765">
        <ele>127.039994</ele>
        <time>2021-02-18T19:58:15.981Z</time>
      </trkpt>
      <trkpt lat="48.79557" lon="1.37757">
        <ele>125.778088</ele>
        <time>2021-02-18T19:58:31.556Z</time>
      </trkpt>
      <trkpt lat="48.79511" lon="1.37789">
        <ele>124.414996</ele>
        <time>2021-02-18T19:58:47.530Z</time>
      </trkpt>
      <trkpt lat="48.79431" lon="1.37845">
        <ele>122.173538</ele>
        <time>2021-02-18T19:59:14.172Z</time>
      </trkpt>
      <trkpt lat="48.79416" lon="1.37864">
        <ele>121.87721</ele>
        <time>2021-02-18T19:59:19.817Z</time>
      </trkpt>
      <trkpt lat="48.79387" lon="1.38005">
        <ele>120.402603</ele>
        <time>2021-02-18T19:59:51.861Z</time>
      </trkpt>
      <trkpt lat="48.79388" lon="1.38088">
        <ele>119.777213</ele>
        <time>2021-02-18T20:00:13.686Z</time>
      </trkpt>
      <trkpt lat="48.79389" lon="1.38168">
        <ele>121.536807</ele>
        <time>2021-02-18T20:00:42.072Z</time>
      </trkpt>
      <trkpt lat="48.79388" lon="1.38366">
        <ele>125.73646</ele>
        <time>2021-02-18T20:02:06.296Z</time>
      </trkpt>
      <trkpt lat="48.79382" lon="1.38397">
        <ele>126.116692</ele>
        <time>2021-02-18T20:02:19.797Z</time>
      </trkpt>
      <trkpt lat="48.79344" lon="1.38448">
        <ele>127.024272</ele>
        <time>2021-02-18T20:02:48.117Z</time>
      </trkpt>
      <trkpt lat="48.79324" lon="1.38516">
        <ele>127.901718</ele>
        <time>2021-02-18T20:03:11.094Z</time>
      </trkpt>
      <trkpt lat="48.79288" lon="1.38577">
        <ele>128.763874</ele>
        <time>2021-02-18T20:03:31.210Z</time>
      </trkpt>
      <trkpt lat="48.79238" lon="1.38626">
        <ele>127.499009</ele>
        <time>2021-02-18T20:03:52.285Z</time>
      </trkpt>
      <trkpt lat="48.79235" lon="1.38631">
        <ele>127.400351</ele>
        <time>2021-02-18T20:03:53.633Z</time>
      </trkpt>
      <trkpt lat="48.78977" lon="1.38776">
        <ele>120.699018</ele>
        <time>2021-02-18T20:05:19.942Z</time>
      </trkpt>
      <trkpt lat="48.78977" lon="1.38761">
        <ele>120.435848</ele>
        <time>2021-02-18T20:05:21.489Z</time>
      </trkpt>
      <trkpt lat="48.78986" lon="1.38714">
        <ele>120.55899</ele>
        <time>2021-02-18T20:05:27.641Z</time>
      </trkpt>
      <trkpt lat="48.79025" lon="1.38666">
        <ele>121.270162</ele>
        <time>2021-02-18T20:05:40.899Z</time>
      </trkpt>
      <trkpt lat="48.79043" lon="1.38652">
        <ele>121.544917</ele>
        <time>2021-02-18T20:05:46.741Z</time>
      </trkpt>
      <trkpt lat="48.79029" lon="1.38596">
        <ele>122.093047</ele>
        <time>2021-02-18T20:06:06.459Z</time>
      </trkpt>
      <trkpt lat="48.78974" lon="1.38522">
        <ele>124.294867</ele>
        <time>2021-02-18T20:06:54.195Z</time>
      </trkpt>
      <trkpt lat="48.78991" lon="1.3848">
        <ele>126.090197</ele>
        <time>2021-02-18T20:07:16.992Z</time>
      </trkpt>
      <trkpt lat="48.79048" lon="1.38328">
        <ele>132.456046</ele>
        <time>2021-02-18T20:08:46.526Z</time>
      </trkpt>
      <trkpt lat="48.79068" lon="1.38223">
        <ele>135.216521</ele>
        <time>2021-02-18T20:09:31.982Z</time>
      </trkpt>
      <trkpt lat="48.79072" lon="1.38201">
        <ele>135.803734</ele>
        <time>2021-02-18T20:09:41.889Z</time>
      </trkpt>
      <trkpt lat="48.79069" lon="1.3813">
        <ele>137.560153</ele>
        <time>2021-02-18T20:10:08.738Z</time>
      </trkpt>
      <trkpt lat="48.79043" lon="1.38059">
        <ele>139.47867</ele>
        <time>2021-02-18T20:10:38.381Z</time>
      </trkpt>
      <trkpt lat="48.79032" lon="1.38047">
        <ele>139.642401</ele>
        <time>2021-02-18T20:10:45.634Z</time>
      </trkpt>
      <trkpt lat="48.78983" lon="1.38029">
        <ele>140.257367</ele>
        <time>2021-02-18T20:11:11.104Z</time>
      </trkpt>
      <trkpt lat="48.7889" lon="1.3804">
        <ele>141.401896</ele>
        <time>2021-02-18T20:11:51.115Z</time>
      </trkpt>
      <trkpt lat="48.78827" lon="1.3804">
        <ele>141.317512</ele>
        <time>2021-02-18T20:12:14.843Z</time>
      </trkpt>
      <trkpt lat="48.78817" lon="1.38041">
        <ele>141.24527</ele>
        <time>2021-02-18T20:12:18.430Z</time>
      </trkpt>
      <trkpt lat="48.78598" lon="1.37994">
        <ele>139.131079</ele>
        <time>2021-02-18T20:13:35.797Z</time>
      </trkpt>
      <trkpt lat="48.78584" lon="1.37993">
        <ele>138.958475</ele>
        <time>2021-02-18T20:13:40.365Z</time>
      </trkpt>
      <trkpt lat="48.78022" lon="1.37967">
        <ele>131.575734</ele>
        <time>2021-02-18T20:16:51.659Z</time>
      </trkpt>
      <trkpt lat="48.77988" lon="1.37966">
        <ele>131.255114</ele>
        <time>2021-02-18T20:17:04.475Z</time>
      </trkpt>
      <trkpt lat="48.7791" lon="1.38064">
        <ele>131.581341</ele>
        <time>2021-02-18T20:17:46.055Z</time>
      </trkpt>
      <trkpt lat="48.77819" lon="1.38178">
        <ele>132.113506</ele>
        <time>2021-02-18T20:18:36.968Z</time>
      </trkpt>
      <trkpt lat="48.77799" lon="1.38208">
        <ele>132.158783</ele>
        <time>2021-02-18T20:18:48.521Z</time>
      </trkpt>
      <trkpt lat="48.77683" lon="1.38386">
        <ele>131.987839</ele>
        <time>2021-02-18T20:19:51.343Z</time>
      </trkpt>
      <trkpt lat="48.77667" lon="1.38421">
        <ele>131.712574</ele>
        <time>2021-02-18T20:20:01.408Z</time>
      </trkpt>
      <trkpt lat="48.77527" lon="1.38721">
        <ele>129.054417</ele>
        <time>2021-02-18T20:21:24.101Z</time>
      </trkpt>
      <trkpt lat="48.77485" lon="1.38823">
        <ele>128.471899</ele>
        <time>2021-02-18T20:21:52.123Z</time>
      </trkpt>
      <trkpt lat="48.77443" lon="1.39034">
        <ele>128.646123</ele>
        <time>2021-02-18T20:22:50.190Z</time>
      </trkpt>
      <trkpt lat="48.77432" lon="1.39236">
        <ele>129.876983</ele>
        <time>2021-02-18T20:23:50.439Z</time>
      </trkpt>
      <trkpt lat="48.7743" lon="1.39278">
        <ele>130.141326</ele>
        <time>2021-02-18T20:24:02.926Z</time>
      </trkpt>
      <trkpt lat="48.77362" lon="1.39547">
        <ele>131.215697</ele>
        <time>2021-02-18T20:25:22.321Z</time>
      </trkpt>
      <trkpt lat="48.77315" lon="1.39771">
        <ele>131.356495</ele>
        <time>2021-02-18T20:26:20.958Z</time>
      </trkpt>
      <trkpt lat="48.77304" lon="1.39822">
        <ele>131.373697</ele>
        <time>2021-02-18T20:26:34.423Z</time>
      </trkpt>
      <trkpt lat="48.77277" lon="1.39974">
        <ele>131.927447</ele>
        <time>2021-02-18T20:27:16.000Z</time>
      </trkpt>
      <trkpt lat="48.7724" lon="1.40069">
        <ele>132.328739</ele>
        <time>2021-02-18T20:27:47.848Z</time>
      </trkpt>
      <trkpt lat="48.77281" lon="1.402">
        <ele>133.22733</ele>
        <time>2021-02-18T20:28:29.588Z</time>
      </trkpt>
      <trkpt lat="48.77286" lon="1.40197">
        <ele>133.282632</ele>
        <time>2021-02-18T20:28:31.606Z</time>
      </trkpt>
      <trkpt lat="48.77303" lon="1.40193">
        <ele>133.449853</ele>
        <time>2021-02-18T20:28:37.023Z</time>
      </trkpt>
      <trkpt lat="48.77306" lon="1.40208">
        <ele>133.552007</ele>
        <time>2021-02-18T20:28:41.101Z</time>
      </trkpt>
      <trkpt lat="48.77269" lon="1.40239">
        <ele>133.964304</ele>
        <time>2021-02-18T20:28:59.980Z</time>
      </trkpt>
      <trkpt lat="48.77233" lon="1.40255">
        <ele>134.295636</ele>
        <time>2021-02-18T20:29:16.483Z</time>
      </trkpt>
      <trkpt lat="48.77192" lon="1.40317">
        <ele>134.756755</ele>
        <time>2021-02-18T20:29:41.230Z</time>
      </trkpt>
      <trkpt lat="48.7719" lon="1.40372">
        <ele>135.049572</ele>
        <time>2021-02-18T20:29:56.282Z</time>
      </trkpt>
      <trkpt lat="48.772" lon="1.40398">
        <ele>135.207782</ele>
        <time>2021-02-18T20:30:04.781Z</time>
      </trkpt>
      <trkpt lat="48.77232" lon="1.40447">
        <ele>135.57593</ele>
        <time>2021-02-18T20:30:24.698Z</time>
      </trkpt>
      <trkpt lat="48.77248" lon="1.40518">
        <ele>135.830848</ele>
        <time>2021-02-18T20:30:45.645Z</time>
      </trkpt>
      <trkpt lat="48.77281" lon="1.40579">
        <ele>136.103632</ele>
        <time>2021-02-18T20:31:07.530Z</time>
      </trkpt>
      <trkpt lat="48.77305" lon="1.40613">
        <ele>136.274085</ele>
        <time>2021-02-18T20:31:20.932Z</time>
      </trkpt>
      <trkpt lat="48.77329" lon="1.40668">
        <ele>136.499784</ele>
        <time>2021-02-18T20:31:38.381Z</time>
      </trkpt>
      <trkpt lat="48.77376" lon="1.40745">
        <ele>136.555231</ele>
        <time>2021-02-18T20:32:05.374Z</time>
      </trkpt>
      <trkpt lat="48.77408" lon="1.40816">
        <ele>136.591852</ele>
        <time>2021-02-18T20:32:27.152Z</time>
      </trkpt>
      <trkpt lat="48.77408" lon="1.40851">
        <ele>136.606839</ele>
        <time>2021-02-18T20:32:36.010Z</time>
      </trkpt>
      <trkpt lat="48.77399" lon="1.40883">
        <ele>136.621847</ele>
        <time>2021-02-18T20:32:44.832Z</time>
      </trkpt>
      <trkpt lat="48.77397" lon="1.40914">
        <ele>136.580922</ele>
        <time>2021-02-18T20:32:52.643Z</time>
      </trkpt>
      <trkpt lat="48.77406" lon="1.40952">
        <ele>136.465851</ele>
        <time>2021-02-18T20:33:02.637Z</time>
      </trkpt>
      <trkpt lat="48.77419" lon="1.40988">
        <ele>136.346614</ele>
        <time>2021-02-18T20:33:13.005Z</time>
      </trkpt>
      <trkpt lat="48.77424" lon="1.41002">
        <ele>136.299299</ele>
        <time>2021-02-18T20:33:17.121Z</time>
      </trkpt>
      <trkpt lat="48.77639" lon="1.41231">
        <ele>134.33622</ele>
        <time>2021-02-18T20:34:51.302Z</time>
      </trkpt>
      <trkpt lat="48.77687" lon="1.41282">
        <ele>133.114816</ele>
        <time>2021-02-18T20:35:10.797Z</time>
      </trkpt>
      <trkpt lat="48.77772" lon="1.41364">
        <ele>130.284507</ele>
        <time>2021-02-18T20:35:43.053Z</time>
      </trkpt>
      <trkpt lat="48.77793" lon="1.41402">
        <ele>129.369765</ele>
        <time>2021-02-18T20:35:52.878Z</time>
      </trkpt>
      <trkpt lat="48.77812" lon="1.41412">
        <ele>128.56431</ele>
        <time>2021-02-18T20:35:58.888Z</time>
      </trkpt>
      <trkpt lat="48.77839" lon="1.41406">
        <ele>127.188882</ele>
        <time>2021-02-18T20:36:06.795Z</time>
      </trkpt>
      <trkpt lat="48.77855" lon="1.41396">
        <ele>126.31389</ele>
        <time>2021-02-18T20:36:11.800Z</time>
      </trkpt>
      <trkpt lat="48.77752" lon="1.41687">
        <ele>116.831382</ele>
        <time>2021-02-18T20:37:14.133Z</time>
      </trkpt>
      <trkpt lat="48.77759" lon="1.41691">
        <ele>116.588323</ele>
        <time>2021-02-18T20:37:16.295Z</time>
      </trkpt>
      <trkpt lat="48.77711" lon="1.41843">
        <ele>114.215788</ele>
        <time>2021-02-18T20:37:54.045Z</time>
      </trkpt>
      <trkpt lat="48.77859" lon="1.41905">
        <ele>115.96424</ele>
        <time>2021-02-18T20:39:09.226Z</time>
      </trkpt>
      <trkpt lat="48.77914" lon="1.41957">
        <ele>117.119251</ele>
        <time>2021-02-18T20:39:42.331Z</time>
      </trkpt>
      <trkpt lat="48.77926" lon="1.41994">
        <ele>117.608733</ele>
        <time>2021-02-18T20:39:55.971Z</time>
      </trkpt>
      <trkpt lat="48.77944" lon="1.42084">
        <ele>118.715333</ele>
        <time>2021-02-18T20:40:25.459Z</time>
      </trkpt>
      <trkpt lat="48.7796" lon="1.42138">
        <ele>119.715222</ele>
        <time>2021-02-18T20:40:43.127Z</time>
      </trkpt>
      <trkpt lat="48.77975" lon="1.42168">
        <ele>120.601956</ele>
        <time>2021-02-18T20:40:53.912Z</time>
      </trkpt>
      <trkpt lat="48.78027" lon="1.42159">
        <ele>122.462221</ele>
        <time>2021-02-18T20:41:23.429Z</time>
      </trkpt>
      <trkpt lat="48.78091" lon="1.42284">
        <ele>126.526627</ele>
        <time>2021-02-18T20:42:33.684Z</time>
      </trkpt>
      <trkpt lat="48.78096" lon="1.42272">
        <ele>127.033953</ele>
        <time>2021-02-18T20:42:43.111Z</time>
      </trkpt>
      <trkpt lat="48.78175" lon="1.42217">
        <ele>131.795214</ele>
        <time>2021-02-18T20:43:45.817Z</time>
      </trkpt>
      <trkpt lat="48.78234" lon="1.4234">
        <ele>136.353646</ele>
        <time>2021-02-18T20:44:57.559Z</time>
      </trkpt>
      <trkpt lat="48.78285" lon="1.42578">
        <ele>140.783723</ele>
        <time>2021-02-18T20:46:21.802Z</time>
      </trkpt>
      <trkpt lat="48.78299" lon="1.4264">
        <ele>141.260674</ele>
        <time>2021-02-18T20:46:41.506Z</time>
      </trkpt>
      <trkpt lat="48.78415" lon="1.42446">
        <ele>142.563255</ele>
        <time>2021-02-18T20:47:55.331Z</time>
      </trkpt>
      <trkpt lat="48.78793" lon="1.42134">
        <ele>142.190579</ele>
        <time>2021-02-18T20:50:38.145Z</time>
      </trkpt>
      <trkpt lat="48.78749" lon="1.42308">
        <ele>141.46013</ele>
        <time>2021-02-18T20:51:03.344Z</time>
      </trkpt>
      <trkpt lat="48.78698" lon="1.42503">
        <ele>140.714584</ele>
        <time>2021-02-18T20:51:33.664Z</time>
      </trkpt>
      <trkpt lat="48.78664" lon="1.4264">
        <ele>141.01843</ele>
        <time>2021-02-18T20:51:57.850Z</time>
      </trkpt>
      <trkpt lat="48.78662" lon="1.42645">
        <ele>141.029853</ele>
        <time>2021-02-18T20:51:59.167Z</time>
      </trkpt>
      <trkpt lat="48.78658" lon="1.42657">
        <ele>141.056278</ele>
        <time>2021-02-18T20:52:03.249Z</time>
      </trkpt>
      <trkpt lat="48.78631" lon="1.4276">
        <ele>141.335686</ele>
        <time>2021-02-18T20:52:37.126Z</time>
      </trkpt>
      <trkpt lat="48.78609" lon="1.42845">
        <ele>141.619359</ele>
        <time>2021-02-18T20:52:56.047Z</time>
      </trkpt>
      <trkpt lat="48.78549" lon="1.43083">
        <ele>141.302845</ele>
        <time>2021-02-18T20:53:35.253Z</time>
      </trkpt>
      <trkpt lat="48.78478" lon="1.43364">
        <ele>139.115672</ele>
        <time>2021-02-18T20:54:16.358Z</time>
      </trkpt>
      <trkpt lat="48.78482" lon="1.43413">
        <ele>138.693357</ele>
        <time>2021-02-18T20:54:23.115Z</time>
      </trkpt>
      <trkpt lat="48.78538" lon="1.43446">
        <ele>137.963639</ele>
        <time>2021-02-18T20:54:36.023Z</time>
      </trkpt>
      <trkpt lat="48.78612" lon="1.4349">
        <ele>137.31078</ele>
        <time>2021-02-18T20:54:53.390Z</time>
      </trkpt>
      <trkpt lat="48.7861" lon="1.4353">
        <ele>137.094928</ele>
        <time>2021-02-18T20:54:59.279Z</time>
      </trkpt>
      <trkpt lat="48.78615" lon="1.43584">
        <ele>136.80134</ele>
        <time>2021-02-18T20:55:06.786Z</time>
      </trkpt>
      <trkpt lat="48.78617" lon="1.43605">
        <ele>136.68319</ele>
        <time>2021-02-18T20:55:09.581Z</time>
      </trkpt>
      <trkpt lat="48.78622" lon="1.43664">
        <ele>136.542001</ele>
        <time>2021-02-18T20:55:17.238Z</time>
      </trkpt>
      <trkpt lat="48.78597" lon="1.438">
        <ele>136.406164</ele>
        <time>2021-02-18T20:55:38.016Z</time>
      </trkpt>
      <trkpt lat="48.78586" lon="1.43867">
        <ele>136.339431</ele>
        <time>2021-02-18T20:55:49.795Z</time>
      </trkpt>
      <trkpt lat="48.78576" lon="1.43931">
        <ele>136.48034</ele>
        <time>2021-02-18T20:56:01.299Z</time>
      </trkpt>
      <trkpt lat="48.78561" lon="1.4399">
        <ele>136.719289</ele>
        <time>2021-02-18T20:56:12.299Z</time>
      </trkpt>
      <trkpt lat="48.7855" lon="1.44023">
        <ele>136.861399</ele>
        <time>2021-02-18T20:56:19.083Z</time>
      </trkpt>
      <trkpt lat="48.78536" lon="1.44013">
        <ele>136.950773</ele>
        <time>2021-02-18T20:56:23.173Z</time>
      </trkpt>
      <trkpt lat="48.7853" lon="1.4401">
        <ele>136.987094</ele>
        <time>2021-02-18T20:56:24.965Z</time>
      </trkpt>
      <trkpt lat="48.78479" lon="1.4399">
        <ele>137.289218</ele>
        <time>2021-02-18T20:56:39.579Z</time>
      </trkpt>
      <trkpt lat="48.78369" lon="1.43977">
        <ele>137.352362</ele>
        <time>2021-02-18T20:57:06.498Z</time>
      </trkpt>
      <trkpt lat="48.78334" lon="1.43983">
        <ele>137.352362</ele>
        <time>2021-02-18T20:57:14.527Z</time>
      </trkpt>
      <trkpt lat="48.78318" lon="1.4399">
        <ele>137.352362</ele>
        <time>2021-02-18T20:57:18.247Z</time>
      </trkpt>
      <trkpt lat="48.78308" lon="1.44029">
        <ele>137.352362</ele>
        <time>2021-02-18T20:57:24.527Z</time>
      </trkpt>
    </trkseg>
  </trk>
</gpx>